createdAt,value
2018-08-08T00:00:31.940Z,70.52
2018-08-08T00:01:04.943Z,70.81
2018-08-08T00:02:25.939Z,70.62
2018-08-08T00:03:07.442Z,70.90
2018-08-08T00:04:26.439Z,70.52
2018-08-08T00:06:36.960Z,70.23
2018-08-08T00:07:57.967Z,71.00
2018-08-08T00:08:36.969Z,70.32
2018-08-08T00:11:08.736Z,70.42
2018-08-08T00:12:08.740Z,70.62
2018-08-08T00:13:08.742Z,70.68
2018-08-08T00:14:08.345Z,70.87
2018-08-08T00:15:09.240Z,71.16
2018-08-08T00:16:23.241Z,70.97
2018-08-08T00:17:09.241Z,70.87
2018-08-08T00:18:09.738Z,71.36
2018-08-08T00:21:03.580Z,71.26
2018-08-08T00:21:41.127Z,71.45
2018-08-08T00:23:08.627Z,71.64
2018-08-08T00:24:03.581Z,72.32
2018-08-08T00:24:41.625Z,72.03
2018-08-08T00:25:41.634Z,72.03
2018-08-08T00:28:13.378Z,72.13
2018-08-08T00:29:13.385Z,71.64
2018-08-08T00:30:13.387Z,72.03
2018-08-08T00:33:07.102Z,72.03
2018-08-08T00:33:45.150Z,72.13
2018-08-08T00:34:47.648Z,72.09
2018-08-08T00:36:06.656Z,72.48
2018-08-08T00:36:45.648Z,72.48
2018-08-08T00:37:48.081Z,72.28
2018-08-08T00:38:47.122Z,73.25
2018-08-08T00:39:46.142Z,73.44
2018-08-08T00:40:46.148Z,73.25
2018-08-08T00:41:46.150Z,73.54
2018-08-08T00:42:46.648Z,73.63
2018-08-08T00:43:46.648Z,73.54
2018-08-08T00:44:46.002Z,73.54
2018-08-08T00:45:46.658Z,73.35
2018-08-08T00:46:48.667Z,73.63
2018-08-08T00:47:49.149Z,73.63
2018-08-08T00:48:47.149Z,73.93
2018-08-08T00:49:47.150Z,73.83
2018-08-08T00:51:08.651Z,73.79
2018-08-08T00:51:47.661Z,74.02
2018-08-08T00:52:47.649Z,73.83
2018-08-08T00:53:47.127Z,73.83
2018-08-08T00:54:48.157Z,73.83
2018-08-08T00:55:48.149Z,73.83
2018-08-08T00:56:48.154Z,73.93
2018-08-08T00:57:48.149Z,74.31
2018-08-08T00:58:47.752Z,73.69
2018-08-08T00:59:50.581Z,73.54
2018-08-08T01:00:48.646Z,73.73
2018-08-08T01:01:48.649Z,73.99
2018-08-08T01:02:49.157Z,73.73
2018-08-08T01:03:49.149Z,74.02
2018-08-08T01:04:49.150Z,73.89
2018-08-08T01:05:49.154Z,73.93
2018-08-08T01:08:34.923Z,73.83
2018-08-08T01:09:41.845Z,73.21
2018-08-08T01:10:20.914Z,73.41
2018-08-08T01:11:20.522Z,73.69
2018-08-08T01:12:21.412Z,73.35
2018-08-08T01:13:21.431Z,73.25
2018-08-08T01:14:21.913Z,73.50
2018-08-08T01:15:21.023Z,73.41
2018-08-08T01:16:21.913Z,73.79
2018-08-08T01:17:21.916Z,73.60
2018-08-08T01:18:21.913Z,73.50
2018-08-08T01:19:22.415Z,73.50
2018-08-08T01:21:56.306Z,73.50
2018-08-08T01:23:14.517Z,73.79
2018-08-08T01:23:54.313Z,73.21
2018-08-08T01:24:54.314Z,73.06
2018-08-08T01:27:26.594Z,73.50
2018-08-08T01:28:26.601Z,73.60
2018-08-08T01:29:26.602Z,73.21
2018-08-08T01:30:27.109Z,73.69
2018-08-08T01:31:27.101Z,73.41
2018-08-08T01:32:27.100Z,72.63
2018-08-08T01:33:26.578Z,72.63
2018-08-08T01:34:27.601Z,72.99
2018-08-08T01:35:27.601Z,73.37
2018-08-08T01:36:27.599Z,73.66
2018-08-08T01:37:27.096Z,74.33
2018-08-08T01:38:28.102Z,74.33
2018-08-08T01:39:29.535Z,74.62
2018-08-08T01:40:28.109Z,74.52
2018-08-08T01:41:27.586Z,74.82
2018-08-08T01:42:29.034Z,74.82
2018-08-08T01:43:42.599Z,75.20
2018-08-08T01:44:48.937Z,75.01
2018-08-08T01:45:28.611Z,75.01
2018-08-08T01:46:52.167Z,74.91
2018-08-08T01:47:35.123Z,75.10
2018-08-08T01:48:49.348Z,74.82
2018-08-08T01:49:29.102Z,75.01
2018-08-08T01:50:28.587Z,74.91
2018-08-08T01:51:29.602Z,74.78
2018-08-08T01:52:50.602Z,74.91
2018-08-08T01:53:49.956Z,75.01
2018-08-08T01:54:29.603Z,74.68
2018-08-08T01:55:32.072Z,75.01
2018-08-08T01:58:01.450Z,75.07
2018-08-08T01:59:01.463Z,75.26
2018-08-08T02:00:09.388Z,74.88
2018-08-08T02:01:07.957Z,74.68
2018-08-08T02:03:47.358Z,74.72
2018-08-08T02:04:54.352Z,75.20
2018-08-08T02:05:54.351Z,75.10
2018-08-08T02:06:54.848Z,75.01
2018-08-08T02:07:33.851Z,74.58
2018-08-08T02:08:37.783Z,75.07
2018-08-08T02:09:33.852Z,74.78
2018-08-08T02:12:20.116Z,74.52
2018-08-08T02:13:05.220Z,73.66
2018-08-08T02:14:20.130Z,73.24
2018-08-08T02:15:06.133Z,73.91
2018-08-08T02:16:27.121Z,73.43
2018-08-08T02:18:37.891Z,74.78
2018-08-08T02:19:37.891Z,74.68
2018-08-08T02:20:37.891Z,75.26
2018-08-08T02:21:38.392Z,75.45
2018-08-08T02:22:38.393Z,76.23
2018-08-08T02:23:38.391Z,76.23
2018-08-08T02:24:38.388Z,75.65
2018-08-08T02:25:38.833Z,75.07
2018-08-08T02:26:40.891Z,74.49
2018-08-08T02:27:38.892Z,74.78
2018-08-08T02:28:40.891Z,74.65
2018-08-08T02:30:00.394Z,75.26
2018-08-08T02:31:00.397Z,75.74
2018-08-08T02:33:31.251Z,75.16
2018-08-08T02:34:10.925Z,75.55
2018-08-08T02:35:31.925Z,75.45
2018-08-08T02:36:11.448Z,75.07
2018-08-08T02:37:11.444Z,75.36
2018-08-08T02:38:12.423Z,75.16
2018-08-08T02:39:11.426Z,75.16
2018-08-08T02:40:11.925Z,75.16
2018-08-08T02:41:11.925Z,75.45
2018-08-08T02:42:11.924Z,74.88
2018-08-08T02:43:11.924Z,74.68
2018-08-08T02:44:12.422Z,74.68
2018-08-08T02:45:12.427Z,74.30
2018-08-08T02:46:33.426Z,74.10
2018-08-08T02:47:11.911Z,74.01
2018-08-08T02:48:16.357Z,74.30
2018-08-08T02:49:12.933Z,74.26
2018-08-08T02:50:12.931Z,75.03
2018-08-08T02:51:12.925Z,74.74
2018-08-08T02:52:27.428Z,75.51
2018-08-08T02:53:13.425Z,75.99
2018-08-08T02:54:13.426Z,75.80
2018-08-08T02:55:12.907Z,76.28
2018-08-08T02:56:13.925Z,76.38
2018-08-08T02:57:13.152Z,76.09
2018-08-08T02:58:13.922Z,76.38
2018-08-08T02:59:13.451Z,76.09
2018-08-08T03:01:45.699Z,76.09
2018-08-08T03:02:45.712Z,76.38
2018-08-08T03:03:45.704Z,76.09
2018-08-08T03:04:52.207Z,76.48
2018-08-08T03:06:13.204Z,76.28
2018-08-08T03:06:46.204Z,76.57
2018-08-08T03:07:46.204Z,76.48
2018-08-08T03:08:45.807Z,76.48
2018-08-08T03:09:46.710Z,76.38
2018-08-08T03:10:46.705Z,76.57
2018-08-08T03:11:46.712Z,76.28
2018-08-08T03:13:14.204Z,75.90
2018-08-08T03:13:46.438Z,75.32
2018-08-08T03:14:47.213Z,75.32
2018-08-08T03:15:47.204Z,75.32
2018-08-08T03:16:47.705Z,75.51
2018-08-08T03:17:46.932Z,75.90
2018-08-08T03:18:47.705Z,76.57
2018-08-08T03:19:47.708Z,76.28
2018-08-08T03:20:48.209Z,76.28
2018-08-08T03:21:48.205Z,76.09
2018-08-08T03:22:48.205Z,76.38
2018-08-08T03:23:47.688Z,76.48
2018-08-08T03:24:48.761Z,75.80
2018-08-08T03:25:47.840Z,75.80
2018-08-08T03:26:50.711Z,75.80
2018-08-08T03:27:48.055Z,75.90
2018-08-08T03:28:48.705Z,76.18
2018-08-08T03:29:49.200Z,75.42
2018-08-08T03:30:49.203Z,76.09
2018-08-08T03:32:10.203Z,75.51
2018-08-08T03:32:49.205Z,75.51
2018-08-08T03:33:49.706Z,75.13
2018-08-08T03:34:48.928Z,75.13
2018-08-08T03:35:51.664Z,75.71
2018-08-08T03:36:49.705Z,75.32
2018-08-08T03:39:20.774Z,75.71
2018-08-08T03:40:21.492Z,75.42
2018-08-08T03:41:21.474Z,75.13
2018-08-08T03:42:42.974Z,75.42
2018-08-08T03:43:21.974Z,75.13
2018-08-08T03:44:21.974Z,75.32
2018-08-08T03:45:21.977Z,76.18
2018-08-08T03:46:22.474Z,75.90
2018-08-08T03:47:21.712Z,76.38
2018-08-08T03:48:22.476Z,75.99
2018-08-08T03:49:22.475Z,75.90
2018-08-08T03:50:23.907Z,76.57
2018-08-08T03:51:22.974Z,76.18
2018-08-08T03:52:23.008Z,76.28
2018-08-08T03:53:23.470Z,76.76
2018-08-08T03:54:23.471Z,76.09
2018-08-08T03:55:23.481Z,76.38
2018-08-08T03:56:23.482Z,76.09
2018-08-08T03:57:23.478Z,75.71
2018-08-08T03:58:37.975Z,75.32
2018-08-08T03:59:44.906Z,75.32
2018-08-08T04:00:23.310Z,75.51
2018-08-08T04:01:23.975Z,75.90
2018-08-08T04:02:24.009Z,76.18
2018-08-08T04:03:49.448Z,76.18
2018-08-08T04:04:45.482Z,76.48
2018-08-08T04:05:23.911Z,76.38
2018-08-08T04:06:45.471Z,76.18
2018-08-08T04:07:45.064Z,75.99
2018-08-08T04:08:24.976Z,76.18
2018-08-08T04:10:59.924Z,75.23
2018-08-08T04:14:59.414Z,75.36
2018-08-08T04:15:59.423Z,75.51
2018-08-08T04:17:00.855Z,75.80
2018-08-08T04:17:59.864Z,76.57
2018-08-08T04:18:59.920Z,76.38
2018-08-08T04:19:59.921Z,76.86
2018-08-08T04:20:59.921Z,76.38
2018-08-08T04:22:20.921Z,75.13
2018-08-08T04:24:31.678Z,73.62
2018-08-08T04:25:31.683Z,73.33
2018-08-08T04:26:31.687Z,72.95
2018-08-08T04:32:27.303Z,71.09
2018-08-08T04:33:07.267Z,71.00
2018-08-08T04:34:10.243Z,71.09
2018-08-08T04:36:38.065Z,70.80
2018-08-08T04:37:38.075Z,71.03
2018-08-08T04:38:40.575Z,70.94
2018-08-08T04:39:44.567Z,69.10
2018-08-08T04:40:40.522Z,69.97
2018-08-08T04:41:38.568Z,69.10
2018-08-08T04:42:38.564Z,69.58
2018-08-08T04:43:39.085Z,68.52
2018-08-08T04:44:39.068Z,68.36
2018-08-08T04:46:00.071Z,68.07
2018-08-08T04:46:39.068Z,67.88
2018-08-08T04:49:10.838Z,67.69
2018-08-08T04:50:33.294Z,68.07
2018-08-08T04:51:10.834Z,67.91
2018-08-08T04:53:42.597Z,67.72
2018-08-08T04:54:42.603Z,67.62
2018-08-08T04:55:42.608Z,68.07
2018-08-08T04:56:57.113Z,68.30
2018-08-08T04:57:44.535Z,68.55
2018-08-08T04:58:43.111Z,68.78
2018-08-08T04:59:51.582Z,69.07
2018-08-08T05:00:57.610Z,68.30
2018-08-08T05:01:49.603Z,68.10
2018-08-08T05:02:42.963Z,67.91
2018-08-08T05:03:43.603Z,68.10
2018-08-08T05:04:44.108Z,68.78
2018-08-08T05:05:43.350Z,67.72
2018-08-08T05:06:43.463Z,68.01
2018-08-08T05:07:44.103Z,67.52
2018-08-08T05:08:58.615Z,68.49
2018-08-08T05:09:44.605Z,68.68
2018-08-08T05:10:44.607Z,68.59
2018-08-08T05:11:44.601Z,68.59
2018-08-08T05:12:45.105Z,68.88
2018-08-08T05:13:45.104Z,69.26
2018-08-08T05:14:45.106Z,70.10
2018-08-08T05:15:45.105Z,70.14
2018-08-08T05:16:53.037Z,70.29
2018-08-08T05:17:59.605Z,70.00
2018-08-08T05:18:45.629Z,70.58
2018-08-08T05:19:45.107Z,70.10
2018-08-08T05:20:46.106Z,71.26
2018-08-08T05:21:46.113Z,70.97
2018-08-08T05:22:46.104Z,71.39
2018-08-08T05:23:46.102Z,71.06
2018-08-08T05:24:45.707Z,70.62
2018-08-08T05:27:17.977Z,70.72
2018-08-08T05:28:17.966Z,70.90
2018-08-08T05:29:17.468Z,70.23
2018-08-08T05:30:20.483Z,70.62
2018-08-08T05:31:18.466Z,70.42
2018-08-08T05:32:17.820Z,70.23
2018-08-08T05:33:18.466Z,70.14
2018-08-08T05:35:50.305Z,72.16
2018-08-08T05:38:21.822Z,71.20
2018-08-08T05:39:21.830Z,71.20
2018-08-08T05:40:21.837Z,72.06
2018-08-08T05:41:22.329Z,72.45
2018-08-08T05:42:21.555Z,72.84
2018-08-08T05:43:22.330Z,72.55
2018-08-08T05:44:22.329Z,72.16
2018-08-08T05:45:22.834Z,72.42
2018-08-08T05:46:22.064Z,69.92
2018-08-08T05:47:22.827Z,66.56
2018-08-08T05:48:22.828Z,67.37
2018-08-08T05:49:43.414Z,62.88
2018-08-08T05:50:50.331Z,60.88
2018-08-08T05:51:44.339Z,59.84
2018-08-08T05:52:23.329Z,59.97
2018-08-08T05:53:46.262Z,58.80
2018-08-08T05:54:24.828Z,58.34
2018-08-08T05:55:24.828Z,58.25
2018-08-08T05:56:23.835Z,58.80
2018-08-08T05:57:38.330Z,58.80
2018-08-08T05:58:25.763Z,57.93
2018-08-08T06:00:55.790Z,59.38
2018-08-08T06:01:55.797Z,58.80
2018-08-08T06:03:16.798Z,58.77
2018-08-08T06:03:56.301Z,59.87
2018-08-08T06:04:56.763Z,59.16
2018-08-08T06:05:56.298Z,60.06
2018-08-08T06:06:58.297Z,60.13
2018-08-08T06:07:55.901Z,60.61
2018-08-08T06:08:56.799Z,60.45
2018-08-08T06:09:56.156Z,61.04
2018-08-08T06:10:56.803Z,61.00
2018-08-08T06:12:18.298Z,61.10
2018-08-08T06:14:43.180Z,60.91
2018-08-08T06:15:29.192Z,61.88
2018-08-08T06:16:56.195Z,61.58
2018-08-08T06:17:28.694Z,61.39
2018-08-08T06:18:35.686Z,60.81
2018-08-08T06:19:43.688Z,62.65
2018-08-08T06:20:29.687Z,61.85
2018-08-08T06:21:29.690Z,61.85
2018-08-08T06:22:31.619Z,62.91
2018-08-08T06:23:31.645Z,64.92
2018-08-08T06:24:31.119Z,64.82
2018-08-08T06:27:22.081Z,62.72
2018-08-08T06:28:03.271Z,62.07
2018-08-08T06:29:01.836Z,62.65
2018-08-08T06:30:01.442Z,61.88
2018-08-08T06:31:23.333Z,61.98
2018-08-08T06:32:23.340Z,62.46
2018-08-08T06:33:02.338Z,61.19
2018-08-08T06:35:34.128Z,62.01
2018-08-08T06:36:34.137Z,63.46
2018-08-08T06:37:33.616Z,61.39
2018-08-08T06:38:34.648Z,61.19
2018-08-08T06:39:34.636Z,61.58
2018-08-08T06:40:55.635Z,61.04
2018-08-08T06:41:34.633Z,61.22
2018-08-08T06:42:35.139Z,62.10
2018-08-08T06:43:56.185Z,61.22
2018-08-08T06:44:35.146Z,61.45
2018-08-08T06:45:34.636Z,61.07
2018-08-08T06:48:06.908Z,61.35
2018-08-08T06:49:06.894Z,60.71
2018-08-08T06:50:06.900Z,60.61
2018-08-08T06:51:07.397Z,61.09
2018-08-08T06:52:06.626Z,59.74
2018-08-08T06:53:06.776Z,59.44
2018-08-08T06:54:06.836Z,59.76
2018-08-08T06:55:07.898Z,58.11
2018-08-08T06:56:07.897Z,57.53
2018-08-08T06:57:07.144Z,57.07
2018-08-08T06:58:28.234Z,56.77
2018-08-08T06:59:07.347Z,57.46
2018-08-08T07:01:39.620Z,55.90
2018-08-08T07:02:39.627Z,55.80
2018-08-08T07:03:39.634Z,55.22
2018-08-08T07:04:39.239Z,55.54
2018-08-08T07:05:40.234Z,55.25
2018-08-08T07:06:40.124Z,54.86
2018-08-08T07:07:40.123Z,55.44
2018-08-08T07:08:40.630Z,54.57
2018-08-08T07:09:40.624Z,54.18
2018-08-08T07:10:40.625Z,54.08
2018-08-08T07:11:40.623Z,54.47
2018-08-08T07:13:01.212Z,54.66
2018-08-08T07:13:40.338Z,53.69
2018-08-08T07:14:40.444Z,53.72
2018-08-08T07:15:42.120Z,54.60
2018-08-08T07:16:41.628Z,54.21
2018-08-08T07:17:43.627Z,55.37
2018-08-08T07:18:43.090Z,55.66
2018-08-08T07:19:41.663Z,54.60
2018-08-08T07:20:41.225Z,53.81
2018-08-08T07:21:57.119Z,53.91
2018-08-08T07:22:41.481Z,53.72
2018-08-08T07:23:42.130Z,54.60
2018-08-08T07:24:44.057Z,53.91
2018-08-08T07:25:50.083Z,54.21
2018-08-08T07:26:41.953Z,54.21
2018-08-08T07:27:44.623Z,55.25
2018-08-08T07:28:49.136Z,55.54
2018-08-08T07:29:45.125Z,54.86
2018-08-08T07:30:43.161Z,55.41
2018-08-08T07:31:43.626Z,56.97
2018-08-08T07:32:57.624Z,55.71
2018-08-08T07:33:49.623Z,55.80
2018-08-08T07:34:43.661Z,55.71
2018-08-08T07:35:43.153Z,56.20
2018-08-08T07:36:43.284Z,55.64
2018-08-08T07:37:44.125Z,56.77
2018-08-08T07:38:44.129Z,55.90
2018-08-08T07:39:43.601Z,56.32
2018-08-08T07:40:58.628Z,56.03
2018-08-08T07:41:43.865Z,54.96
2018-08-08T07:42:44.629Z,54.96
2018-08-08T07:43:44.634Z,54.57
2018-08-08T07:44:48.567Z,54.57
2018-08-08T07:45:44.389Z,54.79
2018-08-08T07:46:45.127Z,54.50
2018-08-08T07:47:45.126Z,54.99
2018-08-08T07:48:45.638Z,54.01
2018-08-08T07:49:45.632Z,53.91
2018-08-08T07:50:45.625Z,53.52
2018-08-08T07:51:45.626Z,53.81
2018-08-08T07:53:09.126Z,53.94
2018-08-08T07:53:51.058Z,54.03
2018-08-08T07:54:46.126Z,55.27
2018-08-08T07:55:45.607Z,53.36
2018-08-08T07:56:45.714Z,53.75
2018-08-08T07:57:48.634Z,53.16
2018-08-08T07:58:46.630Z,52.67
2018-08-08T07:59:46.101Z,52.67
2018-08-08T08:01:53.126Z,52.87
2018-08-08T08:02:47.128Z,52.58
2018-08-08T08:03:46.617Z,52.50
2018-08-08T08:04:49.629Z,52.70
2018-08-08T08:05:46.853Z,51.75
2018-08-08T08:06:53.627Z,51.43
2018-08-08T08:07:48.559Z,51.26
2018-08-08T08:08:48.070Z,51.17
2018-08-08T08:09:49.125Z,50.78
2018-08-08T08:11:02.142Z,50.80
2018-08-08T08:12:02.135Z,50.41
2018-08-08T08:12:49.199Z,50.12
2018-08-08T08:13:51.559Z,49.80
2018-08-08T08:14:54.627Z,49.51
2018-08-08T08:16:08.992Z,49.49
2018-08-08T08:16:48.627Z,49.29
2018-08-08T08:18:16.129Z,50.46
2018-08-08T08:19:03.136Z,51.24
2018-08-08T08:19:55.129Z,51.17
2018-08-08T08:21:09.620Z,50.19
2018-08-08T08:22:10.627Z,50.09
2018-08-08T08:22:49.629Z,50.68
2018-08-08T08:23:50.626Z,50.12
2018-08-08T08:24:49.635Z,49.73
2018-08-08T08:26:10.267Z,49.73
2018-08-08T08:26:50.128Z,49.37
2018-08-08T08:27:50.128Z,48.49
2018-08-08T08:28:49.616Z,48.27
2018-08-08T08:29:54.613Z,49.12
2018-08-08T08:30:50.659Z,49.61
2018-08-08T08:31:51.627Z,49.61
2018-08-08T08:32:50.628Z,49.61
2018-08-08T08:33:50.229Z,49.73
2018-08-08T08:34:50.337Z,49.24
2018-08-08T08:35:53.126Z,48.36
2018-08-08T08:36:52.627Z,48.46
2018-08-08T08:37:51.687Z,48.00
2018-08-08T08:38:51.629Z,48.19
2018-08-08T08:39:51.627Z,48.10
2018-08-08T08:40:53.629Z,48.10
2018-08-08T08:41:52.129Z,48.00
2018-08-08T08:42:52.130Z,48.02
2018-08-08T08:43:51.558Z,47.90
2018-08-08T08:44:51.595Z,47.51
2018-08-08T08:45:51.701Z,46.73
2018-08-08T08:46:51.815Z,48.29
2018-08-08T08:48:15.064Z,48.10
2018-08-08T08:48:52.007Z,47.51
2018-08-08T08:49:52.636Z,47.80
2018-08-08T08:50:52.236Z,46.24
2018-08-08T08:52:14.132Z,46.34
2018-08-08T08:53:13.472Z,46.63
2018-08-08T08:53:52.598Z,46.85
2018-08-08T08:54:55.634Z,46.34
2018-08-08T08:55:52.870Z,45.95
2018-08-08T08:56:52.976Z,46.53
2018-08-08T08:57:55.631Z,46.53
2018-08-08T08:58:53.256Z,46.95
2018-08-08T08:59:53.379Z,47.22
2018-08-08T09:02:24.972Z,46.17
2018-08-08T09:03:40.648Z,46.26
2018-08-08T09:04:25.158Z,46.17
2018-08-08T09:05:27.582Z,45.68
2018-08-08T09:06:46.363Z,45.02
2018-08-08T09:07:27.648Z,44.70
2018-08-08T09:08:46.553Z,44.34
2018-08-08T09:09:47.731Z,44.43
2018-08-08T09:10:28.651Z,45.12
2018-08-08T09:11:32.650Z,44.73
2018-08-08T09:12:40.660Z,44.43
2018-08-08T09:13:26.650Z,46.07
2018-08-08T09:14:33.149Z,45.87
2018-08-08T09:15:54.152Z,45.78
2018-08-08T09:16:48.150Z,45.58
2018-08-08T09:17:26.632Z,45.80
2018-08-08T09:18:47.729Z,45.41
2018-08-08T09:19:26.836Z,45.68
2018-08-08T09:20:33.651Z,46.07
2018-08-08T09:21:27.652Z,45.80
2018-08-08T09:22:27.651Z,45.68
2018-08-08T09:23:28.153Z,45.80
2018-08-08T09:24:27.385Z,45.12
2018-08-08T09:27:19.943Z,44.34
2018-08-08T09:28:20.665Z,41.89
2018-08-08T09:28:59.666Z,42.09
2018-08-08T09:29:59.274Z,43.46
2018-08-08T09:31:00.168Z,44.34
2018-08-08T09:31:59.555Z,44.63
2018-08-08T09:33:00.166Z,41.89
2018-08-08T09:34:00.674Z,43.55
2018-08-08T09:34:59.908Z,43.26
2018-08-08T09:36:00.012Z,43.16
2018-08-08T09:37:00.670Z,43.16
2018-08-08T09:38:22.132Z,41.50
2018-08-08T09:39:22.165Z,43.08
2018-08-08T09:40:00.535Z,42.50
2018-08-08T09:41:00.635Z,42.50
2018-08-08T09:42:01.666Z,42.01
2018-08-08T09:43:07.666Z,41.72
2018-08-08T09:44:01.675Z,42.50
2018-08-08T09:45:01.166Z,42.99
2018-08-08T09:46:16.167Z,42.99
2018-08-08T09:47:08.173Z,42.69
2018-08-08T09:48:02.169Z,42.40
2018-08-08T09:49:02.167Z,42.61
2018-08-08T09:50:23.671Z,43.08
2018-08-08T09:51:08.666Z,43.48
2018-08-08T09:52:02.668Z,42.99
2018-08-08T09:53:02.667Z,43.85
2018-08-08T09:54:07.601Z,42.89
2018-08-08T09:55:24.179Z,43.18
2018-08-08T09:56:24.224Z,41.82
2018-08-08T09:57:05.598Z,41.72
2018-08-08T09:58:02.751Z,41.52
2018-08-08T09:59:09.676Z,41.91
2018-08-08T10:00:20.666Z,42.01
2018-08-08T10:01:24.130Z,42.11
2018-08-08T10:03:41.420Z,43.18
2018-08-08T10:04:34.886Z,41.13
2018-08-08T10:05:37.902Z,41.62
2018-08-08T10:06:51.333Z,41.62
2018-08-08T10:07:35.260Z,41.42
2018-08-08T10:08:35.901Z,41.91
2018-08-08T10:09:42.401Z,42.11
2018-08-08T10:10:38.841Z,42.21
2018-08-08T10:11:36.420Z,41.83
2018-08-08T10:12:36.416Z,42.79
2018-08-08T10:13:36.003Z,42.79
2018-08-08T10:14:36.914Z,42.40
2018-08-08T10:16:00.337Z,42.40
2018-08-08T10:18:08.510Z,42.40
2018-08-08T10:19:07.931Z,43.08
2018-08-08T10:20:29.517Z,43.87
2018-08-08T10:21:09.016Z,43.38
2018-08-08T10:22:29.235Z,43.67
2018-08-08T10:23:08.343Z,43.38
2018-08-08T10:24:09.022Z,42.40
2018-08-08T10:25:09.028Z,43.08
2018-08-08T10:26:09.517Z,43.18
2018-08-08T10:27:08.807Z,43.38
2018-08-08T10:28:08.860Z,43.08
2018-08-08T10:29:09.522Z,43.01
2018-08-08T10:32:02.795Z,43.30
2018-08-08T10:33:02.802Z,43.38
2018-08-08T10:33:41.803Z,43.18
2018-08-08T10:36:13.576Z,43.59
2018-08-08T10:37:19.584Z,43.49
2018-08-08T10:38:13.584Z,44.16
2018-08-08T10:39:13.199Z,44.26
2018-08-08T10:41:45.474Z,44.06
2018-08-08T10:42:45.481Z,44.74
2018-08-08T10:43:45.484Z,44.38
2018-08-08T10:44:45.982Z,44.84
2018-08-08T10:45:45.981Z,44.35
2018-08-08T10:46:45.984Z,44.77
2018-08-08T10:47:45.481Z,43.69
2018-08-08T10:48:45.593Z,43.49
2018-08-08T10:49:46.508Z,43.52
2018-08-08T10:50:46.483Z,43.52
2018-08-08T10:51:45.972Z,42.74
2018-08-08T10:52:46.981Z,43.73
2018-08-08T10:53:48.444Z,43.42
2018-08-08T10:54:46.305Z,42.56
2018-08-08T10:55:47.008Z,43.62
2018-08-08T10:58:18.747Z,43.15
2018-08-08T10:59:18.133Z,40.80
2018-08-08T11:00:18.244Z,40.01
2018-08-08T11:01:33.255Z,40.23
2018-08-08T11:02:18.488Z,40.14
2018-08-08T11:03:46.256Z,40.33
2018-08-08T11:04:18.748Z,40.33
2018-08-08T11:05:18.875Z,39.25
2018-08-08T11:06:21.753Z,40.03
2018-08-08T11:07:19.761Z,39.35
2018-08-08T11:08:19.239Z,38.68
2018-08-08T11:09:26.257Z,38.98
2018-08-08T11:10:21.213Z,39.07
2018-08-08T11:11:20.251Z,38.29
2018-08-08T11:12:20.264Z,38.49
2018-08-08T11:13:20.755Z,38.78
2018-08-08T11:14:19.993Z,38.88
2018-08-08T11:15:23.377Z,38.31
2018-08-08T11:17:58.345Z,36.25
2018-08-08T11:19:06.345Z,39.69
2018-08-08T11:19:55.806Z,38.41
2018-08-08T11:21:00.277Z,38.31
2018-08-08T11:21:54.921Z,39.47
2018-08-08T11:22:54.278Z,37.33
2018-08-08T11:23:54.369Z,36.35
2018-08-08T11:24:59.346Z,37.04
2018-08-08T11:25:53.349Z,38.21
2018-08-08T11:26:56.854Z,38.12
2018-08-08T11:27:55.847Z,37.82
2018-08-08T11:30:46.286Z,37.31
2018-08-08T11:31:25.252Z,38.49
2018-08-08T11:32:24.764Z,38.49
2018-08-08T11:33:25.754Z,38.49
2018-08-08T11:34:24.990Z,38.49
2018-08-08T11:35:34.228Z,38.88
2018-08-08T11:36:25.760Z,38.88
2018-08-08T11:37:26.254Z,38.68
2018-08-08T11:38:26.255Z,38.39
2018-08-08T11:39:27.269Z,37.71
2018-08-08T11:40:25.763Z,37.05
2018-08-08T11:41:28.759Z,36.37
2018-08-08T11:42:25.988Z,37.56
2018-08-08T11:43:26.755Z,36.88
2018-08-08T11:44:26.267Z,35.99
2018-08-08T11:47:04.546Z,36.19
2018-08-08T11:47:58.561Z,35.33
2018-08-08T11:48:58.553Z,35.52
2018-08-08T11:49:58.211Z,35.80
2018-08-08T11:50:59.055Z,36.27
2018-08-08T11:51:59.056Z,35.03
2018-08-08T11:52:59.051Z,34.67
2018-08-08T11:53:58.716Z,34.06
2018-08-08T11:54:58.839Z,34.20
2018-08-08T11:55:58.985Z,33.98
2018-08-08T11:56:59.098Z,34.66
2018-08-08T11:58:21.062Z,34.74
2018-08-08T11:59:00.082Z,34.33
2018-08-08T11:59:59.417Z,34.26
2018-08-08T12:01:06.094Z,34.28
2018-08-08T12:02:00.582Z,33.70
2018-08-08T12:02:59.799Z,33.72
2018-08-08T12:04:00.562Z,32.28
2018-08-08T12:05:00.045Z,31.41
2018-08-08T12:06:01.522Z,30.83
2018-08-08T12:07:01.055Z,30.75
2018-08-08T12:08:03.054Z,31.21
2018-08-08T12:09:01.120Z,31.41
2018-08-08T12:10:00.571Z,31.51
2018-08-08T12:11:01.554Z,31.41
2018-08-08T12:12:01.555Z,31.87
2018-08-08T12:13:00.920Z,32.46
2018-08-08T12:14:01.035Z,31.69
2018-08-08T12:15:01.147Z,31.80
2018-08-08T12:16:23.051Z,31.77
2018-08-08T12:17:29.053Z,31.97
2018-08-08T12:18:01.582Z,31.97
2018-08-08T12:19:29.554Z,31.79
2018-08-08T12:20:08.557Z,31.41
2018-08-08T12:21:01.912Z,31.31
2018-08-08T12:22:02.672Z,30.83
2018-08-08T12:23:09.050Z,30.26
2018-08-08T12:24:17.050Z,31.11
2018-08-08T12:25:05.053Z,31.18
2018-08-08T12:26:03.117Z,31.57
2018-08-08T12:27:17.577Z,32.17
2018-08-08T12:28:17.556Z,32.20
2018-08-08T12:29:05.984Z,31.70
2018-08-08T12:30:05.488Z,31.31
2018-08-08T12:31:04.080Z,31.13
2018-08-08T12:32:06.063Z,30.94
2018-08-08T12:33:24.317Z,30.62
2018-08-08T12:34:03.420Z,31.09
2018-08-08T12:35:25.120Z,31.77
2018-08-08T12:37:35.117Z,33.91
2018-08-08T12:38:35.844Z,34.38
2018-08-08T12:39:35.845Z,34.28
2018-08-08T12:40:57.342Z,34.18
2018-08-08T12:48:40.063Z,31.01
2018-08-08T12:49:46.902Z,31.31
2018-08-08T12:50:40.286Z,31.32
2018-08-08T12:52:01.387Z,31.01
2018-08-08T12:52:40.534Z,31.52
2018-08-08T12:53:40.635Z,31.34
2018-08-08T12:54:47.401Z,31.52
2018-08-08T12:55:43.902Z,30.94
2018-08-08T12:56:43.898Z,29.89
2018-08-08T12:57:41.150Z,29.10
2018-08-08T12:58:41.264Z,28.61
2018-08-08T12:59:42.838Z,28.82
2018-08-08T13:02:27.667Z,27.48
2018-08-08T13:03:13.036Z,28.72
2018-08-08T13:04:13.666Z,28.92
2018-08-08T13:05:41.171Z,28.74
2018-08-08T13:06:13.433Z,28.05
2018-08-08T13:07:28.170Z,28.52
2018-08-08T13:08:35.250Z,29.00
2018-08-08T13:09:41.675Z,29.88
2018-08-08T13:11:46.574Z,31.29
2018-08-08T13:12:45.997Z,31.76
2018-08-08T13:13:46.137Z,32.43
2018-08-08T13:15:01.084Z,33.20
2018-08-08T13:15:46.324Z,34.16
2018-08-08T13:16:47.583Z,34.18
2018-08-08T13:17:46.573Z,32.72
2018-08-08T13:18:46.688Z,31.41
2018-08-08T13:19:50.552Z,31.11
2018-08-08T13:20:47.593Z,30.63
2018-08-08T13:21:53.582Z,31.21
2018-08-08T13:23:09.083Z,31.67
2018-08-08T13:23:50.094Z,32.26
2018-08-08T13:24:48.095Z,31.95
2018-08-08T13:25:48.081Z,32.34
2018-08-08T13:27:15.596Z,32.43
2018-08-08T13:27:47.814Z,33.39
2018-08-08T13:29:09.580Z,33.87
2018-08-08T13:29:48.073Z,33.48
2018-08-08T13:31:10.089Z,34.34
2018-08-08T13:31:51.081Z,34.64
2018-08-08T13:32:48.470Z,34.92
2018-08-08T13:34:10.085Z,34.25
2018-08-08T13:34:49.585Z,33.70
2018-08-08T13:36:10.583Z,33.02
2018-08-08T13:36:49.585Z,32.92
2018-08-08T13:38:04.081Z,33.29
2018-08-08T13:38:50.083Z,34.36
2018-08-08T13:40:11.082Z,33.89
2018-08-08T13:40:50.092Z,34.28
2018-08-08T13:41:50.088Z,34.01
2018-08-08T13:42:50.583Z,33.89
2018-08-08T13:43:49.840Z,34.18
2018-08-08T13:44:49.954Z,33.89
2018-08-08T13:45:50.670Z,32.54
2018-08-08T13:46:53.086Z,31.70
2018-08-08T13:47:51.083Z,31.13
2018-08-08T13:48:50.538Z,31.77
2018-08-08T13:49:50.613Z,31.70
2018-08-08T13:50:51.585Z,31.04
2018-08-08T13:53:23.001Z,29.78
2018-08-08T13:54:44.008Z,29.60
2018-08-08T13:55:43.509Z,29.52
2018-08-08T13:56:43.614Z,29.82
2018-08-08T13:58:54.900Z,30.37
2018-08-08T13:59:54.267Z,30.75
2018-08-08T14:02:47.586Z,29.99
2018-08-08T14:03:40.612Z,30.88
2018-08-08T14:04:28.062Z,30.75
2018-08-08T14:08:29.826Z,31.31
2018-08-08T14:09:30.829Z,31.69
2018-08-08T14:10:29.833Z,32.36
2018-08-08T14:11:54.766Z,32.10
2018-08-08T14:12:51.342Z,31.51
2018-08-08T14:13:30.334Z,31.69
2018-08-08T14:14:30.335Z,31.31
2018-08-08T14:15:29.949Z,31.11
2018-08-08T14:16:30.834Z,31.41
2018-08-08T14:17:51.834Z,31.04
2018-08-08T14:18:30.840Z,29.88
2018-08-08T14:19:30.444Z,29.50
2018-08-08T14:20:31.376Z,29.99
2018-08-08T14:21:31.336Z,30.09
2018-08-08T14:22:31.334Z,30.15